Chippewa County International Airport
KCIU : now visible

Airfield :











YOU CAN JOIN US ON...

 
LOGIN :

Register | Disclaimer

   EN    FR    IT 

 









Legend :    VFR   Marginal VFR   IFR   Intensive IFR   Very Intensive IFR
Visi :
Ceiling :
>= 8 km
>= 3000ft
5 to 8 km
1000 to 3000 ft
1500m to 5 km
500 to 1000 ft
800 to 1500m
200 to 500 ft
< 800m
< 200 ft
Symbols :   Thunderstorms  Fog  Heavy snow  Heavy precipitations  Wind > 20 kt






- Airport Elevation : 800 ft
- IATA code : CIU


KCIU - Chippewa County International

CURRENT METAR :
  • 231356Z AUTO 24009G15KT 10SM FEW110 10/06 A2956 RMK AO2 SLP014 T01000061

EXPIRED METARs :
  • 231256Z AUTO 23003KT 10SM OVC100 08/06 A2957 RMK AO2 RAE01 SLP017 P0000 T00780061
  • 231156Z AUTO 22004KT 10SM -RA FEW045 OVC055 07/06 A2957 RMK AO2 SLP016 P0003 60016 70016 T00720061 10106 20072 58007
  • 231056Z AUTO 19008KT 10SM -RA OVC070 07/07 A2957 RMK AO2 RAB51 SLP015 P0001 T00720067
  • 230956Z AUTO 18006KT 10SM SCT009 OVC060 07/07 A2959 RMK AO2 RAE05 SLP022 P0000 T00720067

TAF KCIU
Valid from the 23 at 12:00 until the 24 at 12:00 UTC


231123Z 2312/2412 20009KT P6SM VCSH OVC070
FM231500 24010G17KT P6SM VCSH SCT110
FM232100 32012G18KT P6SM VCSH OVC045
FM240000 35012G19KT P6SM BKN013
FM240400 02012G18KT P6SM OVC024
FM240600 02012G18KT P6SM SCT050
KZMP FIR / North America



MET'MAP, your aeronautical weather chart ! - Copyright ORBIFLY December 2007 - Disclaimer

ORBIFLY MET'MAP TEAM :

Programming & Development : Alexandra Zaïnal
Original concept : Baudouin d'Aumeries
Technical & hardware support : Manuel Goepfert
Assistance : Marc-Olivier Méhu




SOURCES & CREDITS :

   NOAA       Earth
Advisory